createdAt,value
2018-12-07T00:01:53.069Z,20.00
2018-12-07T00:04:21.859Z,20.00
2018-12-07T00:06:55.206Z,19.07
2018-12-07T00:09:23.670Z,20.33
2018-12-07T00:11:52.159Z,18.23
2018-12-07T00:14:20.781Z,19.80
2018-12-07T00:16:51.275Z,19.97
2018-12-07T00:19:20.610Z,20.47
2018-12-07T00:21:49.861Z,21.10
2018-12-07T00:24:19.783Z,21.60
2018-12-07T00:26:49.465Z,19.50
2018-12-07T00:29:18.204Z,19.63
2018-12-07T00:31:47.748Z,21.10
2018-12-07T00:34:16.313Z,21.00
2018-12-07T00:36:45.866Z,22.77
2018-12-07T00:39:16.138Z,23.50
2018-12-07T00:44:24.552Z,22.00
2018-12-07T00:46:53.529Z,23.30
2018-12-07T00:49:22.575Z,22.17
2018-12-07T00:51:51.248Z,21.70
2018-12-07T00:54:23.001Z,22.40
2018-12-07T00:56:51.631Z,22.70
2018-12-07T00:59:23.599Z,22.37
2018-12-07T01:01:52.934Z,22.87
2018-12-07T01:04:23.334Z,23.00
2018-12-07T01:06:52.152Z,21.33
2018-12-07T01:09:21.656Z,21.80
2018-12-07T01:11:50.578Z,20.70
2018-12-07T01:14:23.162Z,22.90
2018-12-07T01:19:32.588Z,22.10
2018-12-07T01:22:01.016Z,23.07
2018-12-07T01:24:29.534Z,23.47
2018-12-07T01:26:59.044Z,22.63
2018-12-07T01:29:27.656Z,22.60
2018-12-07T01:31:57.611Z,24.00
2018-12-07T01:34:28.269Z,22.90
2018-12-07T01:36:58.981Z,23.57
2018-12-07T01:39:31.555Z,23.00
2018-12-07T01:42:00.667Z,22.23
2018-12-07T01:44:29.911Z,22.20
2018-12-07T01:46:59.319Z,22.67
2018-12-07T01:49:29.675Z,21.73
2018-12-07T01:51:59.504Z,24.87
2018-12-07T01:54:28.002Z,23.33
2018-12-07T01:57:20.446Z,23.50
2018-12-07T01:59:48.841Z,23.67
2018-12-07T02:02:19.765Z,25.10
2018-12-07T02:04:49.505Z,23.30
2018-12-07T02:07:34.203Z,23.50
2018-12-07T02:10:04.213Z,23.00
2018-12-07T02:12:32.947Z,23.00
2018-12-07T02:15:02.150Z,21.37
2018-12-07T02:17:33.988Z,23.03
2018-12-07T02:20:03.757Z,23.27
2018-12-07T02:22:32.973Z,23.60
2018-12-07T02:25:01.946Z,23.93
2018-12-07T02:30:22.906Z,22.00
2018-12-07T02:32:52.784Z,21.90
2018-12-07T02:35:22.382Z,22.40
2018-12-07T02:37:50.953Z,20.40
2018-12-07T02:40:20.411Z,22.47
2018-12-07T02:42:49.039Z,20.17
2018-12-07T02:47:57.637Z,19.23
2018-12-07T02:50:27.352Z,18.73
2018-12-07T02:52:56.941Z,21.00
2018-12-07T02:55:25.430Z,17.60
2018-12-07T02:57:55.317Z,18.20
2018-12-07T03:00:24.783Z,18.60
2018-12-07T03:02:53.796Z,20.07
2018-12-07T03:05:22.909Z,17.83
2018-12-07T03:07:51.539Z,19.40
2018-12-07T03:13:01.433Z,19.90
2018-12-07T03:15:29.778Z,20.77
2018-12-07T03:17:59.314Z,18.70
2018-12-07T03:20:29.178Z,20.27
2018-12-07T03:22:59.286Z,20.27
2018-12-07T03:25:27.768Z,18.70
2018-12-07T03:27:56.550Z,19.07
2018-12-07T03:30:25.986Z,16.30
2018-12-07T03:32:55.492Z,17.20
2018-12-07T03:35:25.723Z,17.57
2018-12-07T03:37:54.077Z,19.70
2018-12-07T03:40:22.840Z,17.63
2018-12-07T03:42:52.201Z,17.00
2018-12-07T03:45:20.821Z,18.10
2018-12-07T03:47:49.254Z,19.23
2018-12-07T03:50:17.874Z,19.60
2018-12-07T03:52:46.397Z,19.03
2018-12-07T03:55:16.043Z,19.80
2018-12-07T03:57:46.570Z,20.80
2018-12-07T04:00:15.234Z,21.07
2018-12-07T04:02:43.909Z,19.83
2018-12-07T04:05:13.038Z,18.40
2018-12-07T04:07:41.751Z,18.57
2018-12-07T04:10:10.924Z,18.77
2018-12-07T04:12:40.573Z,19.40
2018-12-07T04:15:09.543Z,20.00
2018-12-07T04:17:38.606Z,19.53
2018-12-07T04:20:07.279Z,19.03
2018-12-07T04:22:35.702Z,18.50
2018-12-07T04:25:05.355Z,17.30
2018-12-07T04:27:34.048Z,16.73
2018-12-07T04:30:19.516Z,18.00
2018-12-07T04:35:27.242Z,18.20
2018-12-07T04:37:56.412Z,19.40
2018-12-07T04:40:25.842Z,18.63
2018-12-07T04:42:54.365Z,18.13
2018-12-07T04:45:23.914Z,17.63
2018-12-07T04:47:53.053Z,18.23
2018-12-07T04:50:21.678Z,17.50
2018-12-07T04:52:50.806Z,17.53
2018-12-07T04:55:20.998Z,18.20
2018-12-07T04:57:49.655Z,17.03
2018-12-07T05:00:18.278Z,16.50
2018-12-07T05:02:48.060Z,17.70
2018-12-07T05:05:17.432Z,18.53
2018-12-07T05:07:46.062Z,17.70
2018-12-07T05:10:14.554Z,20.10
2018-12-07T05:12:43.201Z,18.93
2018-12-07T05:15:12.174Z,18.90
2018-12-07T05:17:42.383Z,19.30
2018-12-07T05:20:11.619Z,18.73
2018-12-07T05:22:41.530Z,20.10
2018-12-07T05:25:09.916Z,19.97
2018-12-07T05:27:41.440Z,20.90
2018-12-07T05:30:10.172Z,20.20
2018-12-07T05:32:39.471Z,20.43
2018-12-07T05:37:50.253Z,18.70
2018-12-07T05:40:21.650Z,18.20
2018-12-07T05:42:50.375Z,17.90
2018-12-07T05:45:20.063Z,17.80
2018-12-07T05:47:49.269Z,16.20
2018-12-07T05:50:18.115Z,15.87
2018-12-07T05:52:46.611Z,16.57
2018-12-07T05:55:15.751Z,16.97
2018-12-07T05:57:45.891Z,16.30
2018-12-07T06:00:15.853Z,18.40
2018-12-07T06:02:45.383Z,18.87
2018-12-07T06:05:14.524Z,17.70
2018-12-07T06:10:26.191Z,16.80
2018-12-07T06:12:56.961Z,18.70
2018-12-07T06:15:27.154Z,19.90
2018-12-07T06:17:56.128Z,20.40
2018-12-07T06:20:25.304Z,20.37
2018-12-07T06:22:55.154Z,20.40
2018-12-07T06:25:25.765Z,21.40
2018-12-07T06:27:54.265Z,21.37
2018-12-07T06:30:24.383Z,21.10
2018-12-07T06:32:56.688Z,20.63
2018-12-07T06:35:25.964Z,21.00
2018-12-07T06:37:54.581Z,22.13
2018-12-07T06:40:23.946Z,23.10
2018-12-07T06:42:53.762Z,22.10
2018-12-07T06:45:23.792Z,22.90
2018-12-07T06:47:52.476Z,20.67
2018-12-07T06:50:21.199Z,22.23
2018-12-07T06:52:49.621Z,22.43
2018-12-07T06:55:18.106Z,21.60
2018-12-07T06:57:48.249Z,20.40
2018-12-07T07:00:17.641Z,20.60
2018-12-07T07:02:47.223Z,19.70
2018-12-07T07:05:15.707Z,20.20
2018-12-07T07:07:45.871Z,22.40
2018-12-07T07:10:14.366Z,21.90
2018-12-07T07:12:43.566Z,21.40
2018-12-07T07:15:12.062Z,21.80
2018-12-07T07:17:40.556Z,24.30
2018-12-07T07:20:09.197Z,25.00
2018-12-07T07:22:37.747Z,26.20
2018-12-07T07:25:08.443Z,26.90
2018-12-07T07:27:37.713Z,29.13
2018-12-07T07:30:10.305Z,28.53
2018-12-07T07:32:41.126Z,28.17
2018-12-07T07:35:11.719Z,26.67
2018-12-07T07:37:40.261Z,28.50
2018-12-07T07:40:10.859Z,25.67
2018-12-07T07:42:40.079Z,28.10
2018-12-07T07:45:11.365Z,26.63
2018-12-07T07:47:41.287Z,25.83
2018-12-07T07:50:10.375Z,23.90
2018-12-07T07:52:39.566Z,25.63
2018-12-07T07:55:09.151Z,25.67
2018-12-07T07:57:37.745Z,26.20
2018-12-07T08:00:08.800Z,25.43
2018-12-07T08:02:37.458Z,24.83
2018-12-07T08:05:08.654Z,23.63
2018-12-07T08:07:38.764Z,27.10
2018-12-07T08:10:08.989Z,26.60
2018-12-07T08:12:58.789Z,24.50
2018-12-07T08:15:28.577Z,23.97
2018-12-07T08:17:58.541Z,28.05
2018-12-07T08:20:27.745Z,24.00
2018-12-07T08:22:56.950Z,22.20
2018-12-07T08:27:58.693Z,20.90
2018-12-07T08:30:27.756Z,21.00
2018-12-07T08:32:56.308Z,22.40
2018-12-07T08:35:26.054Z,20.43
2018-12-07T08:37:54.915Z,18.77
2018-12-07T08:40:24.882Z,20.20
2018-12-07T08:42:53.538Z,19.87
2018-12-07T08:45:22.069Z,20.70
2018-12-07T08:47:53.575Z,19.83
2018-12-07T08:50:22.149Z,16.63
2018-12-07T08:55:38.851Z,17.03
2018-12-07T08:58:08.859Z,15.77
2018-12-07T09:00:38.781Z,15.53
2018-12-07T09:03:07.933Z,14.53
2018-12-07T09:05:37.023Z,13.40
2018-12-07T09:08:06.023Z,11.57
2018-12-07T09:10:34.745Z,12.30
2018-12-07T09:13:06.063Z,10.87
2018-12-07T09:15:34.569Z,11.80
2018-12-07T09:18:03.155Z,10.73
2018-12-07T09:20:33.248Z,11.57
2018-12-07T09:23:02.864Z,10.40
2018-12-07T09:25:33.935Z,11.80
2018-12-07T09:28:03.574Z,12.37
2018-12-07T09:30:33.110Z,12.23
2018-12-07T09:33:03.878Z,11.40
2018-12-07T09:35:33.890Z,13.27
2018-12-07T09:38:03.665Z,15.00
2018-12-07T09:40:32.969Z,13.00
2018-12-07T09:43:05.538Z,12.83
2018-12-07T09:45:35.228Z,13.20
2018-12-07T09:48:04.908Z,11.87
2018-12-07T09:50:33.448Z,11.37
2018-12-07T09:53:21.114Z,10.50
2018-12-07T09:55:51.076Z,10.83
2018-12-07T09:58:21.322Z,9.77
2018-12-07T10:00:50.833Z,9.87
2018-12-07T10:03:20.991Z,10.30
2018-12-07T10:05:51.569Z,9.70
2018-12-07T10:08:21.776Z,8.43
2018-12-07T10:10:51.232Z,8.57
2018-12-07T10:13:21.314Z,7.90
2018-12-07T10:15:49.969Z,8.10
2018-12-07T10:18:18.901Z,7.80
2018-12-07T10:20:48.271Z,7.00
2018-12-07T10:23:16.895Z,6.97
2018-12-07T10:25:46.044Z,7.03
2018-12-07T10:28:15.634Z,6.60
2018-12-07T10:30:45.825Z,6.10
2018-12-07T10:33:14.321Z,7.27
2018-12-07T10:35:57.029Z,6.77
2018-12-07T10:38:25.541Z,6.77
2018-12-07T10:40:55.629Z,6.27
2018-12-07T10:43:26.170Z,6.30
2018-12-07T10:45:54.820Z,5.80
2018-12-07T10:51:07.920Z,5.80
2018-12-07T10:53:35.173Z,5.53
2018-12-07T10:56:03.715Z,6.10
2018-12-07T10:58:32.398Z,5.67
2018-12-07T11:01:06.583Z,5.30
2018-12-07T11:03:43.662Z,5.60
2018-12-07T11:06:17.626Z,4.70
2018-12-07T11:08:51.845Z,4.23
2018-12-07T11:11:26.129Z,5.10
2018-12-07T11:14:00.347Z,4.70
2018-12-07T11:16:38.211Z,4.20
2018-12-07T11:19:12.950Z,4.03
2018-12-07T11:21:47.129Z,3.97
2018-12-07T11:24:33.619Z,3.30
2018-12-07T11:27:14.218Z,3.77
2018-12-07T11:29:50.006Z,3.10
2018-12-07T11:32:24.338Z,3.00
2018-12-07T11:34:57.439Z,2.97
2018-12-07T11:37:26.882Z,2.70
2018-12-07T11:39:58.003Z,2.97
2018-12-07T11:42:29.798Z,3.00
2018-12-07T11:45:01.540Z,2.80
2018-12-07T11:47:31.418Z,4.00
2018-12-07T11:50:03.680Z,3.23
2018-12-07T11:52:33.125Z,3.67
2018-12-07T11:55:04.612Z,3.50
2018-12-07T11:57:44.509Z,3.60
2018-12-07T12:00:14.194Z,3.20
2018-12-07T12:02:45.483Z,3.47
2018-12-07T12:05:14.784Z,3.53
2018-12-07T12:07:45.577Z,3.77
2018-12-07T12:10:14.580Z,3.47
2018-12-07T12:12:44.994Z,3.50
2018-12-07T12:15:15.935Z,2.83
2018-12-07T12:17:44.795Z,2.90
2018-12-07T12:20:14.720Z,2.83
2018-12-07T12:22:43.936Z,3.50
2018-12-07T12:25:12.313Z,2.43
2018-12-07T12:27:42.995Z,2.13
2018-12-07T12:30:12.957Z,2.20
2018-12-07T12:32:44.146Z,1.97
2018-12-07T12:35:13.561Z,2.60
2018-12-07T12:37:43.128Z,1.93
2018-12-07T12:40:11.622Z,2.10
2018-12-07T12:42:41.156Z,2.13
2018-12-07T12:45:12.366Z,1.83
2018-12-07T12:47:41.154Z,1.77
2018-12-07T12:50:15.933Z,1.90
2018-12-07T12:52:49.245Z,1.97
2018-12-07T12:55:20.895Z,2.40
2018-12-07T12:57:49.697Z,2.20
2018-12-07T13:00:20.925Z,2.73
2018-12-07T13:02:50.657Z,3.07
2018-12-07T13:05:20.035Z,3.10
2018-12-07T13:07:49.527Z,2.80
2018-12-07T13:10:19.247Z,2.57
2018-12-07T13:12:49.181Z,2.90
2018-12-07T13:15:22.701Z,3.20
2018-12-07T13:17:52.387Z,3.63
2018-12-07T13:20:23.818Z,3.00
2018-12-07T13:22:55.454Z,2.77
2018-12-07T13:25:24.383Z,2.50
2018-12-07T13:27:54.860Z,3.17
2018-12-07T13:30:23.683Z,4.27
2018-12-07T13:32:54.218Z,2.53
2018-12-07T13:35:24.269Z,3.27
2018-12-07T13:37:53.223Z,3.00
2018-12-07T13:40:22.742Z,3.00
2018-12-07T13:42:52.256Z,2.83
2018-12-07T13:45:22.295Z,3.47
2018-12-07T13:47:50.992Z,3.73
2018-12-07T13:50:26.060Z,4.00
2018-12-07T13:52:55.369Z,4.00
2018-12-07T13:55:24.857Z,3.70
2018-12-07T13:57:54.694Z,3.70
2018-12-07T14:00:23.866Z,3.73
2018-12-07T14:02:53.497Z,4.23
2018-12-07T14:05:23.607Z,3.93
2018-12-07T14:07:52.954Z,3.90
2018-12-07T14:10:23.415Z,4.97
2018-12-07T14:12:53.391Z,4.40
2018-12-07T14:15:23.144Z,4.40
2018-12-07T14:17:52.507Z,4.43
2018-12-07T14:20:25.285Z,4.03
2018-12-07T14:22:57.634Z,5.07
2018-12-07T14:25:28.684Z,5.03
2018-12-07T14:28:10.921Z,8.60
2018-12-07T14:30:43.603Z,4.50
2018-12-07T14:33:14.689Z,4.80
2018-12-07T14:35:47.981Z,4.07
2018-12-07T14:38:18.805Z,3.70
2018-12-07T14:40:48.091Z,3.63
2018-12-07T14:43:18.068Z,4.20
2018-12-07T14:45:53.361Z,4.07
2018-12-07T14:48:28.015Z,3.93
2018-12-07T14:50:58.106Z,4.20
2018-12-07T14:53:29.514Z,3.90
2018-12-07T14:55:58.355Z,4.20
2018-12-07T14:58:26.963Z,4.20
2018-12-07T15:00:56.661Z,4.60
2018-12-07T15:03:26.706Z,4.00
2018-12-07T15:05:56.359Z,4.90
2018-12-07T15:08:25.000Z,4.90
2018-12-07T15:10:55.176Z,6.03
2018-12-07T15:13:25.003Z,5.60
2018-12-07T15:15:54.557Z,5.90
2018-12-07T15:18:25.993Z,5.23
2018-12-07T15:20:55.252Z,4.10
2018-12-07T15:23:25.457Z,5.60
2018-12-07T15:25:56.209Z,4.60
2018-12-07T15:28:25.025Z,1.97
2018-12-07T15:30:54.716Z,2.10
2018-12-07T15:33:23.636Z,2.20
2018-12-07T15:35:53.874Z,1.90
2018-12-07T15:38:24.264Z,1.80
2018-12-07T15:40:53.084Z,1.83
2018-12-07T15:43:22.436Z,1.97
2018-12-07T15:45:51.803Z,1.87
2018-12-07T15:48:20.886Z,1.80
2018-12-07T15:50:50.087Z,2.63
2018-12-07T15:53:20.052Z,2.50
2018-12-07T15:56:01.370Z,1.80
2018-12-07T15:58:30.823Z,2.97
2018-12-07T16:00:59.429Z,3.30
2018-12-07T16:03:28.915Z,3.33
2018-12-07T16:05:57.692Z,3.60
2018-12-07T16:08:27.943Z,2.97
2018-12-07T16:10:58.081Z,3.43
2018-12-07T16:13:41.809Z,4.40
2018-12-07T16:16:10.421Z,3.17
2018-12-07T16:18:40.076Z,3.80
2018-12-07T16:21:11.884Z,2.37
2018-12-07T16:23:40.876Z,3.23
2018-12-07T16:26:10.445Z,2.80
2018-12-07T16:28:41.778Z,4.80
2018-12-07T16:31:14.597Z,2.80
2018-12-07T16:33:43.568Z,2.27
2018-12-07T16:36:12.440Z,2.00
2018-12-07T16:38:41.061Z,1.70
2018-12-07T16:41:10.781Z,1.50
2018-12-07T16:43:39.746Z,1.80
2018-12-07T16:46:08.301Z,1.87
2018-12-07T16:48:37.772Z,2.30
2018-12-07T16:51:07.798Z,2.77
2018-12-07T16:53:37.558Z,2.37
2018-12-07T16:56:07.798Z,2.20
2018-12-07T16:58:38.066Z,2.27
2018-12-07T17:01:07.401Z,1.90
2018-12-07T17:03:36.162Z,3.13
2018-12-07T17:06:07.596Z,2.07
2018-12-07T17:08:42.449Z,3.00
2018-12-07T17:11:12.245Z,3.00
2018-12-07T17:13:42.424Z,2.60
2018-12-07T17:16:12.355Z,3.20
2018-12-07T17:18:41.278Z,2.07
2018-12-07T17:21:10.852Z,3.07
2018-12-07T17:23:39.909Z,3.40
2018-12-07T17:26:09.679Z,3.07
2018-12-07T17:28:38.620Z,3.37
2018-12-07T17:31:07.477Z,3.60
2018-12-07T17:33:36.906Z,4.10
2018-12-07T17:36:07.478Z,3.90
2018-12-07T17:38:37.927Z,3.57
2018-12-07T17:41:08.334Z,3.50
2018-12-07T17:43:37.219Z,4.73
2018-12-07T17:46:20.617Z,4.10
2018-12-07T17:48:55.627Z,5.20
2018-12-07T17:51:25.662Z,5.40
2018-12-07T17:53:54.600Z,4.27
2018-12-07T17:56:25.187Z,3.17
2018-12-07T17:58:58.106Z,3.50
2018-12-07T18:01:28.042Z,5.10
2018-12-07T18:04:11.826Z,2.80
2018-12-07T18:06:41.004Z,3.03
2018-12-07T18:09:10.588Z,3.40
2018-12-07T18:11:39.191Z,3.30
2018-12-07T18:14:09.340Z,3.03
2018-12-07T18:16:37.944Z,3.07
2018-12-07T18:19:06.633Z,3.60
2018-12-07T18:21:37.230Z,3.23
2018-12-07T18:24:07.068Z,2.70
2018-12-07T18:26:35.419Z,3.90
2018-12-07T18:29:03.963Z,2.60
2018-12-07T18:31:33.218Z,2.27
2018-12-07T18:34:03.984Z,3.33
2018-12-07T18:36:32.678Z,3.37
2018-12-07T18:39:01.154Z,2.80
2018-12-07T18:41:29.624Z,2.87
2018-12-07T18:43:59.314Z,2.77
2018-12-07T18:46:28.945Z,2.87
2018-12-07T18:48:57.593Z,2.53
2018-12-07T18:51:26.782Z,3.17
2018-12-07T18:53:55.715Z,2.50
2018-12-07T18:56:26.136Z,1.80
2018-12-07T18:58:55.742Z,1.83
2018-12-07T19:01:25.520Z,1.83
2018-12-07T19:03:54.764Z,2.43
2018-12-07T19:06:23.186Z,2.57
2018-12-07T19:08:51.556Z,2.47
2018-12-07T19:11:20.185Z,2.63
2018-12-07T19:13:48.865Z,3.00
2018-12-07T19:16:17.716Z,2.30
2018-12-07T19:18:48.256Z,3.20
2018-12-07T19:21:16.773Z,3.30
2018-12-07T19:23:45.602Z,3.23
2018-12-07T19:26:18.299Z,3.63
2018-12-07T19:28:47.548Z,2.40
2018-12-07T19:31:16.934Z,3.20
2018-12-07T19:33:45.442Z,2.30
2018-12-07T19:36:14.999Z,3.10
2018-12-07T19:38:47.069Z,2.80
2018-12-07T19:41:16.672Z,2.57
2018-12-07T19:43:45.453Z,2.40
2018-12-07T19:46:14.229Z,2.33
2018-12-07T19:48:43.697Z,1.50
2018-12-07T19:51:12.654Z,1.93
2018-12-07T19:53:42.293Z,1.77
2018-12-07T19:56:11.602Z,2.90
2018-12-07T19:58:40.222Z,2.30
2018-12-07T20:01:08.904Z,2.60
2018-12-07T20:03:37.773Z,2.57
2018-12-07T20:06:06.971Z,2.17
2018-12-07T20:08:36.333Z,2.13
2018-12-07T20:11:05.591Z,3.17
2018-12-07T20:13:34.379Z,3.57
2018-12-07T20:16:06.361Z,4.20
2018-12-07T20:18:37.150Z,3.60
2018-12-07T20:21:06.530Z,3.47
2018-12-07T20:23:35.622Z,4.37
2018-12-07T20:26:04.198Z,3.30
2018-12-07T20:28:33.032Z,4.00
2018-12-07T20:31:02.182Z,4.10
2018-12-07T20:33:30.742Z,3.53
2018-12-07T20:36:00.554Z,2.97
2018-12-07T20:38:30.495Z,5.47
2018-12-07T20:41:00.511Z,2.77
2018-12-07T20:43:29.770Z,2.80
2018-12-07T20:45:58.456Z,2.50
2018-12-07T20:48:27.714Z,2.67
2018-12-07T20:50:57.400Z,2.43
2018-12-07T20:53:26.066Z,2.40
2018-12-07T20:55:54.900Z,3.30
2018-12-07T20:58:23.587Z,2.80
2018-12-07T21:00:59.201Z,3.10
2018-12-07T21:04:51.062Z,2.60
2018-12-07T21:07:48.366Z,3.70
2018-12-07T21:10:49.279Z,2.30
2018-12-07T21:14:33.742Z,2.57
2018-12-07T21:17:29.305Z,1.87
2018-12-07T21:20:14.510Z,2.43
2018-12-07T21:22:43.542Z,2.30
2018-12-07T21:25:13.353Z,2.37
2018-12-07T21:27:43.304Z,2.50
2018-12-07T21:30:46.139Z,2.30
2018-12-07T21:33:19.404Z,2.57
2018-12-07T21:38:48.467Z,2.43
2018-12-07T21:41:17.347Z,2.40
2018-12-07T21:43:47.206Z,2.50
2018-12-07T21:46:16.483Z,2.60
2018-12-07T21:48:45.057Z,2.97
2018-12-07T21:51:26.014Z,3.17
2018-12-07T21:53:55.337Z,3.63
2018-12-07T21:56:25.823Z,4.10
2018-12-07T21:59:07.940Z,3.57
2018-12-07T22:01:36.960Z,2.80
2018-12-07T22:04:05.919Z,2.57
2018-12-07T22:06:34.535Z,3.90
2018-12-07T22:09:06.142Z,2.97
2018-12-07T22:11:35.838Z,3.30
2018-12-07T22:14:04.645Z,3.00
2018-12-07T22:16:33.806Z,3.60
2018-12-07T22:19:03.386Z,3.73
2018-12-07T22:21:33.220Z,2.50
2018-12-07T22:24:02.785Z,3.47
2018-12-07T22:26:31.636Z,4.13
2018-12-07T22:29:00.425Z,4.10
2018-12-07T22:31:30.040Z,3.10
2018-12-07T22:33:59.353Z,4.25
2018-12-07T22:36:28.275Z,3.53
2018-12-07T22:38:57.106Z,3.23
2018-12-07T22:41:27.482Z,3.67
2018-12-07T22:43:58.603Z,2.93
2018-12-07T22:46:29.487Z,4.03
2018-12-07T22:48:59.152Z,3.23
2018-12-07T22:51:30.836Z,3.10
2018-12-07T22:53:59.349Z,3.50
2018-12-07T22:56:28.731Z,2.90
2018-12-07T22:58:59.576Z,4.90
2018-12-07T23:01:28.923Z,3.73
2018-12-07T23:03:57.615Z,3.37
2018-12-07T23:06:26.288Z,3.37
2018-12-07T23:08:54.697Z,3.67
2018-12-07T23:11:25.347Z,4.00
2018-12-07T23:13:55.174Z,4.10
2018-12-07T23:16:23.605Z,2.87
2018-12-07T23:18:52.150Z,3.87
2018-12-07T23:21:20.793Z,3.90
2018-12-07T23:23:49.499Z,3.20
2018-12-07T23:26:18.103Z,4.03
2018-12-07T23:28:46.653Z,3.80
2018-12-07T23:31:15.110Z,4.47
2018-12-07T23:33:43.876Z,4.07
2018-12-07T23:36:12.505Z,3.50
2018-12-07T23:38:41.101Z,3.30
2018-12-07T23:41:10.093Z,4.00
2018-12-07T23:43:38.551Z,3.47
2018-12-07T23:46:07.199Z,3.47
2018-12-07T23:48:36.767Z,3.03
2018-12-07T23:51:06.171Z,3.20
2018-12-07T23:53:34.742Z,3.33
2018-12-07T23:56:05.346Z,2.90
2018-12-07T23:58:35.140Z,2.70
